sensor_id;sensor_type;location;lat;lon;timestamp;temperature;humidity
72320;SHT30;60269;52.502;16.732;2022-12-18T00:01:19;-5.83;99.76
72320;SHT30;60269;52.502;16.732;2022-12-18T00:04:51;-5.67;99.50
72320;SHT30;60269;52.502;16.732;2022-12-18T00:08:23;-5.63;99.06
72320;SHT30;60269;52.502;16.732;2022-12-18T00:11:55;-5.87;99.30
72320;SHT30;60269;52.502;16.732;2022-12-18T00:15:27;-5.91;99.57
72320;SHT30;60269;52.502;16.732;2022-12-18T00:18:59;-6.00;99.95
72320;SHT30;60269;52.502;16.732;2022-12-18T00:22:31;-6.14;99.99
72320;SHT30;60269;52.502;16.732;2022-12-18T00:26:06;-6.11;99.99
72320;SHT30;60269;52.502;16.732;2022-12-18T00:29:38;-6.24;99.99
72320;SHT30;60269;52.502;16.732;2022-12-18T00:33:10;-6.15;99.99
72320;SHT30;60269;52.502;16.732;2022-12-18T00:36:42;-6.10;99.99
72320;SHT30;60269;52.502;16.732;2022-12-18T00:40:14;-6.05;99.80
72320;SHT30;60269;52.502;16.732;2022-12-18T00:43:46;-6.02;99.65
72320;SHT30;60269;52.502;16.732;2022-12-18T00:47:18;-5.95;99.37
72320;SHT30;60269;52.502;16.732;2022-12-18T00:50:50;-6.20;99.48
72320;SHT30;60269;52.502;16.732;2022-12-18T00:54:23;-6.25;99.62
72320;SHT30;60269;52.502;16.732;2022-12-18T00:57:55;-6.36;99.99
72320;SHT30;60269;52.502;16.732;2022-12-18T01:01:26;-6.46;99.99
72320;SHT30;60269;52.502;16.732;2022-12-18T01:04:58;-6.52;99.99
72320;SHT30;60269;52.502;16.732;2022-12-18T01:08:30;-6.58;99.99
72320;SHT30;60269;52.502;16.732;2022-12-18T01:12:02;-6.49;99.99
72320;SHT30;60269;52.502;16.732;2022-12-18T01:15:34;-6.43;99.96
72320;SHT30;60269;52.502;16.732;2022-12-18T01:19:06;-6.49;99.83
72320;SHT30;60269;52.502;16.732;2022-12-18T01:22:38;-6.56;99.97
72320;SHT30;60269;52.502;16.732;2022-12-18T01:26:13;-6.58;99.95
72320;SHT30;60269;52.502;16.732;2022-12-18T01:29:45;-6.53;99.65
72320;SHT30;60269;52.502;16.732;2022-12-18T01:33:17;-6.33;99.28
72320;SHT30;60269;52.502;16.732;2022-12-18T01:36:49;-6.35;98.96
72320;SHT30;60269;52.502;16.732;2022-12-18T01:40:23;-6.43;99.19
72320;SHT30;60269;52.502;16.732;2022-12-18T01:43:57;-6.52;99.06
72320;SHT30;60269;52.502;16.732;2022-12-18T01:47:39;-6.58;99.21
72320;SHT30;60269;52.502;16.732;2022-12-18T01:51:13;-6.54;99.37
72320;SHT30;60269;52.502;16.732;2022-12-18T01:54:47;-6.65;99.01
72320;SHT30;60269;52.502;16.732;2022-12-18T01:58:25;-6.80;98.46
72320;SHT30;60269;52.502;16.732;2022-12-18T02:01:59;-7.01;98.32
72320;SHT30;60269;52.502;16.732;2022-12-18T02:09:34;-7.19;98.62
72320;SHT30;60269;52.502;16.732;2022-12-18T02:20:36;-6.94;99.37
72320;SHT30;60269;52.502;16.732;2022-12-18T02:24:35;-6.98;99.00
72320;SHT30;60269;52.502;16.732;2022-12-18T02:28:11;-7.05;98.78
72320;SHT30;60269;52.502;16.732;2022-12-18T02:31:51;-7.19;99.67
72320;SHT30;60269;52.502;16.732;2022-12-18T02:35:27;-7.19;99.67
72320;SHT30;60269;52.502;16.732;2022-12-18T02:39:01;-7.19;99.58
72320;SHT30;60269;52.502;16.732;2022-12-18T02:42:33;-7.32;99.25
72320;SHT30;60269;52.502;16.732;2022-12-18T02:50:26;-7.46;99.42
72320;SHT30;60269;52.502;16.732;2022-12-18T02:54:16;-7.46;99.11
72320;SHT30;60269;52.502;16.732;2022-12-18T03:01:43;-7.82;99.23
72320;SHT30;60269;52.502;16.732;2022-12-18T03:05:20;-7.76;99.68
72320;SHT30;60269;52.502;16.732;2022-12-18T03:08:58;-7.63;99.42
72320;SHT30;60269;52.502;16.732;2022-12-18T03:12:34;-7.72;99.05
72320;SHT30;60269;52.502;16.732;2022-12-18T03:16:10;-7.76;98.82
72320;SHT30;60269;52.502;16.732;2022-12-18T03:19:43;-7.70;98.74
72320;SHT30;60269;52.502;16.732;2022-12-18T03:23:21;-7.83;99.55
72320;SHT30;60269;52.502;16.732;2022-12-18T03:27:02;-8.07;99.76
72320;SHT30;60269;52.502;16.732;2022-12-18T03:30:37;-8.13;99.99
72320;SHT30;60269;52.502;16.732;2022-12-18T03:34:15;-8.18;99.95
72320;SHT30;60269;52.502;16.732;2022-12-18T03:37:49;-8.25;99.99
72320;SHT30;60269;52.502;16.732;2022-12-18T03:41:33;-8.06;99.82
72320;SHT30;60269;52.502;16.732;2022-12-18T03:45:23;-8.01;99.43
72320;SHT30;60269;52.502;16.732;2022-12-18T03:48:59;-7.96;99.58
72320;SHT30;60269;52.502;16.732;2022-12-18T03:52:51;-7.91;99.73
72320;SHT30;60269;52.502;16.732;2022-12-18T03:56:26;-8.01;99.53
72320;SHT30;60269;52.502;16.732;2022-12-18T04:00:05;-7.93;99.71
72320;SHT30;60269;52.502;16.732;2022-12-18T04:03:37;-7.90;99.83
72320;SHT30;60269;52.502;16.732;2022-12-18T04:07:11;-7.80;99.92
72320;SHT30;60269;52.502;16.732;2022-12-18T04:10:44;-7.80;99.49
72320;SHT30;60269;52.502;16.732;2022-12-18T04:14:16;-7.77;99.88
72320;SHT30;60269;52.502;16.732;2022-12-18T04:17:50;-7.73;99.69
72320;SHT30;60269;52.502;16.732;2022-12-18T04:21:22;-7.73;99.59
72320;SHT30;60269;52.502;16.732;2022-12-18T04:24:54;-7.79;99.91
72320;SHT30;60269;52.502;16.732;2022-12-18T04:28:26;-7.82;99.63
72320;SHT30;60269;52.502;16.732;2022-12-18T04:31:58;-7.85;99.99
72320;SHT30;60269;52.502;16.732;2022-12-18T04:35:30;-7.79;99.99
72320;SHT30;60269;52.502;16.732;2022-12-18T04:39:02;-7.82;99.99
72320;SHT30;60269;52.502;16.732;2022-12-18T04:42:34;-7.90;99.35
72320;SHT30;60269;52.502;16.732;2022-12-18T04:46:07;-8.01;99.61
72320;SHT30;60269;52.502;16.732;2022-12-18T04:49:40;-7.91;99.94
72320;SHT30;60269;52.502;16.732;2022-12-18T04:53:12;-7.90;99.59
72320;SHT30;60269;52.502;16.732;2022-12-18T04:56:44;-8.01;98.24
72320;SHT30;60269;52.502;16.732;2022-12-18T05:00:16;-8.01;98.40
72320;SHT30;60269;52.502;16.732;2022-12-18T05:03:50;-7.86;99.47
72320;SHT30;60269;52.502;16.732;2022-12-18T05:07:22;-7.85;99.07
72320;SHT30;60269;52.502;16.732;2022-12-18T05:10:59;-7.93;99.26
72320;SHT30;60269;52.502;16.732;2022-12-18T05:14:31;-7.97;98.97
72320;SHT30;60269;52.502;16.732;2022-12-18T05:18:03;-8.03;98.82
72320;SHT30;60269;52.502;16.732;2022-12-18T05:21:35;-7.93;98.78
72320;SHT30;60269;52.502;16.732;2022-12-18T05:25:08;-7.83;98.99
72320;SHT30;60269;52.502;16.732;2022-12-18T05:28:40;-7.69;98.96
72320;SHT30;60269;52.502;16.732;2022-12-18T05:32:12;-7.60;99.43
72320;SHT30;60269;52.502;16.732;2022-12-18T05:35:44;-7.48;99.13
72320;SHT30;60269;52.502;16.732;2022-12-18T05:39:22;-7.36;99.32
72320;SHT30;60269;52.502;16.732;2022-12-18T05:42:54;-7.28;99.82
72320;SHT30;60269;52.502;16.732;2022-12-18T05:46:26;-7.25;99.62
72320;SHT30;60269;52.502;16.732;2022-12-18T05:49:58;-7.25;99.26
72320;SHT30;60269;52.502;16.732;2022-12-18T05:53:31;-7.21;99.42
72320;SHT30;60269;52.502;16.732;2022-12-18T05:57:03;-7.24;99.76
72320;SHT30;60269;52.502;16.732;2022-12-18T06:00:37;-7.15;99.88
72320;SHT30;60269;52.502;16.732;2022-12-18T06:04:12;-7.03;99.83
72320;SHT30;60269;52.502;16.732;2022-12-18T06:07:45;-6.98;99.69
72320;SHT30;60269;52.502;16.732;2022-12-18T06:11:19;-6.97;99.99
72320;SHT30;60269;52.502;16.732;2022-12-18T06:14:52;-6.91;99.99
72320;SHT30;60269;52.502;16.732;2022-12-18T06:18:23;-6.87;99.74
72320;SHT30;60269;52.502;16.732;2022-12-18T06:21:55;-6.94;99.82
72320;SHT30;60269;52.502;16.732;2022-12-18T06:25:29;-6.89;99.70
72320;SHT30;60269;52.502;16.732;2022-12-18T06:29:01;-6.84;99.99
72320;SHT30;60269;52.502;16.732;2022-12-18T06:32:33;-6.70;99.99
72320;SHT30;60269;52.502;16.732;2022-12-18T06:36:07;-6.68;99.69
72320;SHT30;60269;52.502;16.732;2022-12-18T06:39:40;-6.79;99.74
72320;SHT30;60269;52.502;16.732;2022-12-18T06:43:12;-6.81;99.08
72320;SHT30;60269;52.502;16.732;2022-12-18T06:46:43;-6.77;99.00
72320;SHT30;60269;52.502;16.732;2022-12-18T06:50:16;-6.86;99.00
72320;SHT30;60269;52.502;16.732;2022-12-18T06:53:47;-7.04;99.28
72320;SHT30;60269;52.502;16.732;2022-12-18T06:57:19;-6.94;99.96
72320;SHT30;60269;52.502;16.732;2022-12-18T07:00:51;-6.81;99.88
72320;SHT30;60269;52.502;16.732;2022-12-18T07:04:30;-6.83;99.63
72320;SHT30;60269;52.502;16.732;2022-12-18T07:08:02;-6.96;99.63
72320;SHT30;60269;52.502;16.732;2022-12-18T07:11:34;-7.05;99.62
72320;SHT30;60269;52.502;16.732;2022-12-18T07:15:07;-6.97;99.92
72320;SHT30;60269;52.502;16.732;2022-12-18T07:18:39;-6.96;99.38
72320;SHT30;60269;52.502;16.732;2022-12-18T07:22:11;-6.90;99.36
72320;SHT30;60269;52.502;16.732;2022-12-18T07:25:43;-6.90;99.05
72320;SHT30;60269;52.502;16.732;2022-12-18T07:29:15;-6.97;98.83
72320;SHT30;60269;52.502;16.732;2022-12-18T07:32:47;-6.96;99.22
72320;SHT30;60269;52.502;16.732;2022-12-18T07:36:19;-6.97;99.49
72320;SHT30;60269;52.502;16.732;2022-12-18T07:39:51;-6.93;99.31
72320;SHT30;60269;52.502;16.732;2022-12-18T07:43:23;-6.94;99.49
72320;SHT30;60269;52.502;16.732;2022-12-18T07:46:55;-6.93;99.41
72320;SHT30;60269;52.502;16.732;2022-12-18T07:50:27;-6.86;99.00
72320;SHT30;60269;52.502;16.732;2022-12-18T07:53:59;-6.75;98.64
72320;SHT30;60269;52.502;16.732;2022-12-18T07:57:31;-6.63;98.44
72320;SHT30;60269;52.502;16.732;2022-12-18T08:01:23;-6.66;98.37
72320;SHT30;60269;52.502;16.732;2022-12-18T08:04:55;-6.58;98.47
72320;SHT30;60269;52.502;16.732;2022-12-18T08:08:28;-6.52;98.93
72320;SHT30;60269;52.502;16.732;2022-12-18T08:12:00;-6.63;99.47
72320;SHT30;60269;52.502;16.732;2022-12-18T08:15:32;-6.58;99.50
72320;SHT30;60269;52.502;16.732;2022-12-18T08:19:04;-6.60;99.55
72320;SHT30;60269;52.502;16.732;2022-12-18T08:22:37;-6.50;99.47
72320;SHT30;60269;52.502;16.732;2022-12-18T08:26:12;-6.36;99.19
72320;SHT30;60269;52.502;16.732;2022-12-18T08:29:45;-6.18;98.87
72320;SHT30;60269;52.502;16.732;2022-12-18T08:33:16;-6.10;98.27
72320;SHT30;60269;52.502;16.732;2022-12-18T08:36:48;-6.15;97.91
72320;SHT30;60269;52.502;16.732;2022-12-18T08:40:21;-6.17;98.05
72320;SHT30;60269;52.502;16.732;2022-12-18T08:43:54;-6.14;98.73
72320;SHT30;60269;52.502;16.732;2022-12-18T08:47:44;-6.17;98.82
72320;SHT30;60269;52.502;16.732;2022-12-18T08:51:18;-6.10;98.76
72320;SHT30;60269;52.502;16.732;2022-12-18T08:54:50;-6.10;98.76
72320;SHT30;60269;52.502;16.732;2022-12-18T08:58:22;-6.14;98.62
72320;SHT30;60269;52.502;16.732;2022-12-18T09:01:54;-6.14;98.68
72320;SHT30;60269;52.502;16.732;2022-12-18T09:05:27;-5.95;98.76
72320;SHT30;60269;52.502;16.732;2022-12-18T09:08:59;-6.00;98.79
72320;SHT30;60269;52.502;16.732;2022-12-18T09:12:32;-6.02;98.91
72320;SHT30;60269;52.502;16.732;2022-12-18T09:16:04;-5.97;98.77
72320;SHT30;60269;52.502;16.732;2022-12-18T09:19:37;-5.87;98.82
72320;SHT30;60269;52.502;16.732;2022-12-18T09:23:09;-5.83;98.93
72320;SHT30;60269;52.502;16.732;2022-12-18T09:26:41;-5.80;99.12
72320;SHT30;60269;52.502;16.732;2022-12-18T09:30:17;-5.69;98.97
72320;SHT30;60269;52.502;16.732;2022-12-18T09:33:50;-5.62;98.50
72320;SHT30;60269;52.502;16.732;2022-12-18T09:37:22;-5.52;98.49
72320;SHT30;60269;52.502;16.732;2022-12-18T09:40:59;-5.49;98.06
72320;SHT30;60269;52.502;16.732;2022-12-18T09:48:20;-5.55;97.87
72320;SHT30;60269;52.502;16.732;2022-12-18T09:52:08;-5.48;98.06
72320;SHT30;60269;52.502;16.732;2022-12-18T09:55:45;-5.49;97.83
72320;SHT30;60269;52.502;16.732;2022-12-18T09:59:25;-5.44;98.06
72320;SHT30;60269;52.502;16.732;2022-12-18T10:03:01;-5.32;98.03
72320;SHT30;60269;52.502;16.732;2022-12-18T10:29:30;-4.95;97.93
72320;SHT30;60269;52.502;16.732;2022-12-18T10:33:02;-4.80;97.41
72320;SHT30;60269;52.502;16.732;2022-12-18T10:36:34;-4.85;97.27
72320;SHT30;60269;52.502;16.732;2022-12-18T10:40:14;-4.88;97.51
72320;SHT30;60269;52.502;16.732;2022-12-18T10:47:44;-4.64;97.69
72320;SHT30;60269;52.502;16.732;2022-12-18T10:55:03;-4.57;97.00
72320;SHT30;60269;52.502;16.732;2022-12-18T10:58:37;-4.67;96.78
72320;SHT30;60269;52.502;16.732;2022-12-18T11:06:10;-4.62;96.42
72320;SHT30;60269;52.502;16.732;2022-12-18T11:09:42;-4.62;96.79
72320;SHT30;60269;52.502;16.732;2022-12-18T11:13:20;-4.54;96.81
72320;SHT30;60269;52.502;16.732;2022-12-18T11:16:54;-4.52;96.92
72320;SHT30;60269;52.502;16.732;2022-12-18T11:21:06;-4.49;97.43
72320;SHT30;60269;52.502;16.732;2022-12-18T11:24:39;-4.23;97.57
72320;SHT30;60269;52.502;16.732;2022-12-18T11:36:00;-4.37;96.21
72320;SHT30;60269;52.502;16.732;2022-12-18T11:40:10;-4.33;96.61
72320;SHT30;60269;52.502;16.732;2022-12-18T11:43:56;-4.36;96.97
72320;SHT30;60269;52.502;16.732;2022-12-18T11:51:25;-4.32;96.93
72320;SHT30;60269;52.502;16.732;2022-12-18T11:55:00;-4.28;96.79
72320;SHT30;60269;52.502;16.732;2022-12-18T11:58:46;-4.14;96.60
72320;SHT30;60269;52.502;16.732;2022-12-18T12:17:40;-4.29;96.38
72320;SHT30;60269;52.502;16.732;2022-12-18T12:32:41;-4.33;95.54
72320;SHT30;60269;52.502;16.732;2022-12-18T12:36:35;-4.28;96.13
72320;SHT30;60269;52.502;16.732;2022-12-18T12:40:13;-4.15;96.75
72320;SHT30;60269;52.502;16.732;2022-12-18T12:44:08;-4.06;96.35
72320;SHT30;60269;52.502;16.732;2022-12-18T12:47:46;-3.94;95.24
72320;SHT30;60269;52.502;16.732;2022-12-18T12:51:39;-4.22;95.83
72320;SHT30;60269;52.502;16.732;2022-12-18T12:55:19;-4.43;96.23
72320;SHT30;60269;52.502;16.732;2022-12-18T12:59:08;-4.48;96.40
72320;SHT30;60269;52.502;16.732;2022-12-18T13:07:20;-4.43;96.88
72320;SHT30;60269;52.502;16.732;2022-12-18T13:10:57;-4.41;96.48
72320;SHT30;60269;52.502;16.732;2022-12-18T13:14:50;-4.37;96.80
72320;SHT30;60269;52.502;16.732;2022-12-18T13:18:24;-4.35;97.49
72320;SHT30;60269;52.502;16.732;2022-12-18T13:21:56;-4.26;97.12
72320;SHT30;60269;52.502;16.732;2022-12-18T13:25:34;-4.32;96.76
72320;SHT30;60269;52.502;16.732;2022-12-18T13:29:06;-4.48;96.87
72320;SHT30;60269;52.502;16.732;2022-12-18T13:32:39;-4.59;96.20
72320;SHT30;60269;52.502;16.732;2022-12-18T13:39:47;-4.49;96.58
72320;SHT30;60269;52.502;16.732;2022-12-18T13:46:52;-4.49;95.78
72320;SHT30;60269;52.502;16.732;2022-12-18T13:50:25;-4.52;95.97
72320;SHT30;60269;52.502;16.732;2022-12-18T13:57:45;-4.60;96.56
72320;SHT30;60269;52.502;16.732;2022-12-18T14:01:23;-4.66;96.60
72320;SHT30;60269;52.502;16.732;2022-12-18T14:04:55;-4.70;97.08
72320;SHT30;60269;52.502;16.732;2022-12-18T14:08:33;-4.67;97.29
72320;SHT30;60269;52.502;16.732;2022-12-18T14:12:14;-4.67;97.65
72320;SHT30;60269;52.502;16.732;2022-12-18T14:16:18;-4.62;97.31
72320;SHT30;60269;52.502;16.732;2022-12-18T14:19:51;-4.67;97.11
72320;SHT30;60269;52.502;16.732;2022-12-18T14:27:17;-4.87;97.42
72320;SHT30;60269;52.502;16.732;2022-12-18T14:30:51;-4.85;97.69
72320;SHT30;60269;52.502;16.732;2022-12-18T14:34:26;-4.87;97.20
72320;SHT30;60269;52.502;16.732;2022-12-18T14:41:55;-4.98;97.47
72320;SHT30;60269;52.502;16.732;2022-12-18T14:45:42;-5.07;97.37
72320;SHT30;60269;52.502;16.732;2022-12-18T14:52:59;-5.09;97.87
72320;SHT30;60269;52.502;16.732;2022-12-18T14:56:33;-5.14;97.51
72320;SHT30;60269;52.502;16.732;2022-12-18T15:00:14;-5.25;97.27
72320;SHT30;60269;52.502;16.732;2022-12-18T15:03:47;-5.33;97.85
72320;SHT30;60269;52.502;16.732;2022-12-18T15:07:22;-5.29;98.07
72320;SHT30;60269;52.502;16.732;2022-12-18T15:10:54;-5.40;97.64
72320;SHT30;60269;52.502;16.732;2022-12-18T15:18:13;-5.49;98.41
72320;SHT30;60269;52.502;16.732;2022-12-18T15:21:46;-5.48;98.45
72320;SHT30;60269;52.502;16.732;2022-12-18T15:25:32;-5.43;98.45
72320;SHT30;60269;52.502;16.732;2022-12-18T15:29:04;-5.52;97.72
72320;SHT30;60269;52.502;16.732;2022-12-18T15:32:41;-5.60;97.87
72320;SHT30;60269;52.502;16.732;2022-12-18T15:36:15;-5.70;98.20
72320;SHT30;60269;52.502;16.732;2022-12-18T15:39:51;-5.73;98.19
72320;SHT30;60269;52.502;16.732;2022-12-18T15:43:24;-5.81;98.72
72320;SHT30;60269;52.502;16.732;2022-12-18T15:47:12;-5.89;98.85
72320;SHT30;60269;52.502;16.732;2022-12-18T15:50:45;-5.93;99.08
72320;SHT30;60269;52.502;16.732;2022-12-18T15:54:17;-5.91;99.10
72320;SHT30;60269;52.502;16.732;2022-12-18T15:57:49;-5.86;98.93
72320;SHT30;60269;52.502;16.732;2022-12-18T16:01:27;-5.81;98.96
72320;SHT30;60269;52.502;16.732;2022-12-18T16:04:59;-5.76;99.02
72320;SHT30;60269;52.502;16.732;2022-12-18T16:08:31;-5.73;98.54
72320;SHT30;60269;52.502;16.732;2022-12-18T16:12:05;-5.73;98.79
72320;SHT30;60269;52.502;16.732;2022-12-18T16:15:37;-5.73;98.49
72320;SHT30;60269;52.502;16.732;2022-12-18T16:19:09;-5.74;98.63
72320;SHT30;60269;52.502;16.732;2022-12-18T16:22:43;-5.76;98.55
72320;SHT30;60269;52.502;16.732;2022-12-18T16:26:17;-5.77;98.77
72320;SHT30;60269;52.502;16.732;2022-12-18T16:29:49;-5.79;98.47
72320;SHT30;60269;52.502;16.732;2022-12-18T16:33:22;-5.76;98.20
72320;SHT30;60269;52.502;16.732;2022-12-18T16:36:59;-5.79;98.18
72320;SHT30;60269;52.502;16.732;2022-12-18T16:40:37;-5.89;98.60
72320;SHT30;60269;52.502;16.732;2022-12-18T16:44:29;-5.94;99.19
72320;SHT30;60269;52.502;16.732;2022-12-18T16:48:01;-5.89;98.98
72320;SHT30;60269;52.502;16.732;2022-12-18T16:51:33;-5.97;98.12
72320;SHT30;60269;52.502;16.732;2022-12-18T16:55:06;-6.04;98.73
72320;SHT30;60269;52.502;16.732;2022-12-18T16:58:37;-5.94;98.82
72320;SHT30;60269;52.502;16.732;2022-12-18T17:02:17;-5.93;98.16
72320;SHT30;60269;52.502;16.732;2022-12-18T17:05:54;-5.86;98.46
72320;SHT30;60269;52.502;16.732;2022-12-18T17:09:26;-5.83;98.72
72320;SHT30;60269;52.502;16.732;2022-12-18T17:12:58;-5.95;97.81
72320;SHT30;60269;52.502;16.732;2022-12-18T17:16:30;-6.04;98.30
72320;SHT30;60269;52.502;16.732;2022-12-18T17:20:04;-6.02;98.23
72320;SHT30;60269;52.502;16.732;2022-12-18T17:23:36;-6.08;98.43
72320;SHT30;60269;52.502;16.732;2022-12-18T17:27:08;-6.14;98.41
72320;SHT30;60269;52.502;16.732;2022-12-18T17:30:40;-6.21;98.62
72320;SHT30;60269;52.502;16.732;2022-12-18T17:34:13;-6.18;98.47
72320;SHT30;60269;52.502;16.732;2022-12-18T17:37:45;-6.18;98.51
72320;SHT30;60269;52.502;16.732;2022-12-18T17:41:19;-6.20;98.46
72320;SHT30;60269;52.502;16.732;2022-12-18T17:44:51;-6.22;98.81
72320;SHT30;60269;52.502;16.732;2022-12-18T17:48:23;-6.15;98.77
72320;SHT30;60269;52.502;16.732;2022-12-18T17:51:55;-6.12;98.55
72320;SHT30;60269;52.502;16.732;2022-12-18T17:55:27;-6.11;98.41
72320;SHT30;60269;52.502;16.732;2022-12-18T17:58:59;-6.15;98.64
72320;SHT30;60269;52.502;16.732;2022-12-18T18:02:31;-6.15;98.55
72320;SHT30;60269;52.502;16.732;2022-12-18T18:06:05;-6.17;98.58
72320;SHT30;60269;52.502;16.732;2022-12-18T18:09:37;-6.20;98.52
72320;SHT30;60269;52.502;16.732;2022-12-18T18:13:21;-6.25;98.31
72320;SHT30;60269;52.502;16.732;2022-12-18T18:17:17;-6.28;98.29
72320;SHT30;60269;52.502;16.732;2022-12-18T18:20:50;-6.45;98.27
72320;SHT30;60269;52.502;16.732;2022-12-18T18:24:24;-6.53;98.75
72320;SHT30;60269;52.502;16.732;2022-12-18T18:27:56;-6.52;99.01
72320;SHT30;60269;52.502;16.732;2022-12-18T18:31:29;-6.46;99.09
72320;SHT30;60269;52.502;16.732;2022-12-18T18:35:02;-6.43;99.05
72320;SHT30;60269;52.502;16.732;2022-12-18T18:38:33;-6.36;98.75
72320;SHT30;60269;52.502;16.732;2022-12-18T18:42:06;-6.41;98.72
72320;SHT30;60269;52.502;16.732;2022-12-18T18:45:38;-6.36;98.86
72320;SHT30;60269;52.502;16.732;2022-12-18T18:49:12;-6.36;98.79
72320;SHT30;60269;52.502;16.732;2022-12-18T18:52:44;-6.45;98.74
72320;SHT30;60269;52.502;16.732;2022-12-18T18:56:19;-6.39;98.95
72320;SHT30;60269;52.502;16.732;2022-12-18T19:00:12;-6.42;98.61
72320;SHT30;60269;52.502;16.732;2022-12-18T19:03:46;-6.50;98.44
72320;SHT30;60269;52.502;16.732;2022-12-18T19:07:18;-6.45;98.49
72320;SHT30;60269;52.502;16.732;2022-12-18T19:11:03;-6.43;98.53
72320;SHT30;60269;52.502;16.732;2022-12-18T19:14:35;-6.45;98.00
72320;SHT30;60269;52.502;16.732;2022-12-18T19:18:07;-6.45;97.78
72320;SHT30;60269;52.502;16.732;2022-12-18T19:21:39;-6.45;98.49
72320;SHT30;60269;52.502;16.732;2022-12-18T19:25:11;-6.42;98.42
72320;SHT30;60269;52.502;16.732;2022-12-18T19:28:43;-6.45;98.45
72320;SHT30;60269;52.502;16.732;2022-12-18T19:32:15;-6.45;98.17
72320;SHT30;60269;52.502;16.732;2022-12-18T19:35:47;-6.49;98.08
72320;SHT30;60269;52.502;16.732;2022-12-18T19:39:20;-6.50;97.93
72320;SHT30;60269;52.502;16.732;2022-12-18T19:42:52;-6.46;97.81
72320;SHT30;60269;52.502;16.732;2022-12-18T19:46:27;-6.48;97.61
72320;SHT30;60269;52.502;16.732;2022-12-18T19:50:00;-6.48;97.67
72320;SHT30;60269;52.502;16.732;2022-12-18T19:53:32;-6.48;97.44
72320;SHT30;60269;52.502;16.732;2022-12-18T19:57:04;-6.52;97.33
72320;SHT30;60269;52.502;16.732;2022-12-18T20:00:38;-6.54;97.60
72320;SHT30;60269;52.502;16.732;2022-12-18T20:04:10;-6.58;97.66
72320;SHT30;60269;52.502;16.732;2022-12-18T20:07:42;-6.65;97.97
72320;SHT30;60269;52.502;16.732;2022-12-18T20:11:14;-6.72;98.59
72320;SHT30;60269;52.502;16.732;2022-12-18T20:14:48;-6.72;98.61
72320;SHT30;60269;52.502;16.732;2022-12-18T20:18:20;-6.69;98.14
72320;SHT30;60269;52.502;16.732;2022-12-18T20:21:52;-6.75;98.18
72320;SHT30;60269;52.502;16.732;2022-12-18T20:25:24;-6.79;98.29
72320;SHT30;60269;52.502;16.732;2022-12-18T20:28:55;-6.84;98.31
72320;SHT30;60269;52.502;16.732;2022-12-18T20:32:27;-6.91;98.57
72320;SHT30;60269;52.502;16.732;2022-12-18T20:36:11;-7.03;98.72
72320;SHT30;60269;52.502;16.732;2022-12-18T20:39:45;-7.00;98.46
72320;SHT30;60269;52.502;16.732;2022-12-18T20:43:16;-7.04;98.57
72320;SHT30;60269;52.502;16.732;2022-12-18T20:46:58;-7.04;98.56
72320;SHT30;60269;52.502;16.732;2022-12-18T20:50:39;-7.17;98.92
72320;SHT30;60269;52.502;16.732;2022-12-18T20:54:14;-7.18;99.44
72320;SHT30;60269;52.502;16.732;2022-12-18T20:57:46;-7.19;99.20
72320;SHT30;60269;52.502;16.732;2022-12-18T21:01:19;-7.19;99.32
72320;SHT30;60269;52.502;16.732;2022-12-18T21:04:52;-7.15;99.15
72320;SHT30;60269;52.502;16.732;2022-12-18T21:08:25;-7.14;99.25
72320;SHT30;60269;52.502;16.732;2022-12-18T21:11:57;-7.10;98.83
72320;SHT30;60269;52.502;16.732;2022-12-18T21:15:48;-7.18;98.94
72320;SHT30;60269;52.502;16.732;2022-12-18T21:19:22;-7.12;99.12
72320;SHT30;60269;52.502;16.732;2022-12-18T21:22:55;-7.07;99.10
72320;SHT30;60269;52.502;16.732;2022-12-18T21:26:35;-7.12;99.17
72320;SHT30;60269;52.502;16.732;2022-12-18T21:30:15;-7.22;99.50
72320;SHT30;60269;52.502;16.732;2022-12-18T21:33:48;-7.18;99.72
72320;SHT30;60269;52.502;16.732;2022-12-18T21:37:22;-7.07;99.69
72320;SHT30;60269;52.502;16.732;2022-12-18T21:40:55;-7.08;99.60
72320;SHT30;60269;52.502;16.732;2022-12-18T21:44:27;-7.07;99.54
72320;SHT30;60269;52.502;16.732;2022-12-18T21:47:59;-6.96;99.15
72320;SHT30;60269;52.502;16.732;2022-12-18T21:51:32;-7.03;99.62
72320;SHT30;60269;52.502;16.732;2022-12-18T21:55:04;-6.94;99.49
72320;SHT30;60269;52.502;16.732;2022-12-18T21:58:41;-6.87;99.30
72320;SHT30;60269;52.502;16.732;2022-12-18T22:02:27;-6.83;98.95
72320;SHT30;60269;52.502;16.732;2022-12-18T22:06:00;-6.72;98.56
72320;SHT30;60269;52.502;16.732;2022-12-18T22:09:40;-6.80;98.46
72320;SHT30;60269;52.502;16.732;2022-12-18T22:13:12;-6.76;98.35
72320;SHT30;60269;52.502;16.732;2022-12-18T22:16:44;-6.83;98.60
72320;SHT30;60269;52.502;16.732;2022-12-18T22:20:17;-6.79;98.65
72320;SHT30;60269;52.502;16.732;2022-12-18T22:24:02;-6.79;98.46
72320;SHT30;60269;52.502;16.732;2022-12-18T22:27:35;-6.79;98.27
72320;SHT30;60269;52.502;16.732;2022-12-18T22:31:07;-6.89;98.53
72320;SHT30;60269;52.502;16.732;2022-12-18T22:34:40;-6.81;98.14
72320;SHT30;60269;52.502;16.732;2022-12-18T22:38:13;-6.84;98.15
72320;SHT30;60269;52.502;16.732;2022-12-18T22:41:45;-6.90;98.03
72320;SHT30;60269;52.502;16.732;2022-12-18T22:45:17;-6.81;97.87
72320;SHT30;60269;52.502;16.732;2022-12-18T22:48:49;-6.87;97.75
72320;SHT30;60269;52.502;16.732;2022-12-18T22:52:21;-6.93;97.83
72320;SHT30;60269;52.502;16.732;2022-12-18T22:56:01;-6.87;98.02
72320;SHT30;60269;52.502;16.732;2022-12-18T22:59:33;-6.91;97.99
72320;SHT30;60269;52.502;16.732;2022-12-18T23:03:05;-6.90;97.95
72320;SHT30;60269;52.502;16.732;2022-12-18T23:06:38;-6.83;97.70
72320;SHT30;60269;52.502;16.732;2022-12-18T23:10:10;-6.83;97.82
72320;SHT30;60269;52.502;16.732;2022-12-18T23:13:42;-6.80;97.74
72320;SHT30;60269;52.502;16.732;2022-12-18T23:17:15;-6.76;97.62
72320;SHT30;60269;52.502;16.732;2022-12-18T23:20:47;-6.79;97.66
72320;SHT30;60269;52.502;16.732;2022-12-18T23:24:19;-6.77;97.55
72320;SHT30;60269;52.502;16.732;2022-12-18T23:27:51;-6.84;97.92
72320;SHT30;60269;52.502;16.732;2022-12-18T23:31:26;-6.70;97.06
72320;SHT30;60269;52.502;16.732;2022-12-18T23:34:58;-6.76;96.96
72320;SHT30;60269;52.502;16.732;2022-12-18T23:38:31;-6.84;97.44
72320;SHT30;60269;52.502;16.732;2022-12-18T23:42:03;-6.84;97.60
72320;SHT30;60269;52.502;16.732;2022-12-18T23:45:36;-6.81;97.39
72320;SHT30;60269;52.502;16.732;2022-12-18T23:49:09;-6.91;97.31
72320;SHT30;60269;52.502;16.732;2022-12-18T23:52:42;-6.89;97.00
72320;SHT30;60269;52.502;16.732;2022-12-18T23:56:14;-6.89;96.70
72320;SHT30;60269;52.502;16.732;2022-12-18T23:59:46;-6.93;96.88
